createdAt,value
2022-10-05T08:19:54.994Z,1011.91
2022-10-05T08:20:54.931Z,1011.93
2022-10-05T08:21:54.907Z,1011.96
2022-10-05T08:22:54.941Z,1011.95
2022-10-05T08:23:58.854Z,1011.92
2022-10-05T08:24:54.866Z,1011.99
2022-10-05T08:25:54.913Z,1011.97
2022-10-05T08:26:54.855Z,1011.96
2022-10-05T08:27:54.897Z,1011.96
2022-10-05T08:28:54.811Z,1011.96
2022-10-05T08:29:54.890Z,1011.96
2022-10-05T08:30:54.853Z,1011.96
2022-10-05T08:31:54.925Z,1011.94
2022-10-05T08:32:54.789Z,1011.99
2022-10-05T08:33:54.755Z,1011.89
2022-10-05T08:34:54.744Z,1011.96
2022-10-05T08:35:54.750Z,1011.94
2022-10-05T08:36:54.704Z,1011.96
2022-10-05T08:37:54.760Z,1011.95
2022-10-05T08:38:54.684Z,1012.02
2022-10-05T08:39:54.706Z,1011.95
2022-10-05T08:40:54.688Z,1011.94
2022-10-05T08:41:54.664Z,1011.94
2022-10-05T08:42:54.673Z,1011.92
2022-10-05T08:43:54.654Z,1011.92
2022-10-05T08:44:54.624Z,1011.94
2022-10-05T08:45:54.691Z,1011.95
2022-10-05T08:46:54.605Z,1011.93
2022-10-05T08:47:54.600Z,1011.94
2022-10-05T08:48:54.570Z,1011.97
2022-10-05T08:49:54.679Z,1012.00
2022-10-05T08:50:54.549Z,1012.02
2022-10-05T08:51:54.525Z,1012.03
2022-10-05T08:52:54.527Z,1011.99
2022-10-05T08:53:54.511Z,1011.95
2022-10-05T08:54:54.489Z,1012.01
2022-10-05T08:55:54.599Z,1011.90
2022-10-05T08:56:54.482Z,1011.92
2022-10-05T08:57:54.452Z,1011.95
2022-10-05T08:58:54.430Z,1011.98
2022-10-05T08:59:54.447Z,1012.02
2022-10-05T09:00:54.422Z,1011.97
2022-10-05T09:01:54.457Z,1011.94
2022-10-05T09:02:54.434Z,1011.96
2022-10-05T09:03:54.363Z,1011.94
2022-10-05T09:04:54.351Z,1011.93
2022-10-05T09:05:54.375Z,1011.99
2022-10-05T09:06:54.331Z,1012.01
2022-10-05T09:07:54.369Z,1011.99
2022-10-05T09:08:54.328Z,1012.01
2022-10-05T09:09:57.225Z,1012.00
2022-10-05T09:10:55.307Z,1012.00
2022-10-05T09:11:54.276Z,1012.03
2022-10-05T09:12:54.266Z,1012.12
2022-10-05T09:13:54.380Z,1012.03
2022-10-05T09:15:20.534Z,1012.07
2022-10-05T09:15:55.261Z,1011.94
2022-10-05T09:16:54.208Z,1012.01
2022-10-05T09:17:54.191Z,1012.04
2022-10-05T09:18:54.178Z,1011.94
2022-10-05T09:19:54.190Z,1011.97
2022-10-05T09:20:54.155Z,1011.98
2022-10-05T09:21:54.126Z,1011.95
2022-10-05T09:22:54.134Z,1011.97
2022-10-05T09:23:54.105Z,1011.99
2022-10-05T09:24:54.099Z,1012.02
2022-10-05T09:25:54.196Z,1011.94
2022-10-05T09:26:54.071Z,1011.96
2022-10-05T09:27:54.114Z,1011.97
2022-10-05T09:28:54.045Z,1012.02
2022-10-05T09:29:54.033Z,1011.99
2022-10-05T09:30:54.031Z,1011.95
2022-10-05T09:31:54.049Z,1011.91
2022-10-05T09:32:53.991Z,1011.95
2022-10-05T09:33:54.112Z,1011.95
2022-10-05T09:34:54.051Z,1011.93
2022-10-05T09:35:54.039Z,1011.86
2022-10-05T09:36:54.052Z,1011.91
2022-10-05T09:37:54.134Z,1011.89
2022-10-05T09:38:54.024Z,1011.91
2022-10-05T09:39:57.796Z,1011.89
2022-10-05T09:40:54.932Z,1011.95
2022-10-05T09:41:53.862Z,1011.92
2022-10-05T09:42:53.849Z,1011.94
2022-10-05T09:43:53.973Z,1011.88
2022-10-05T09:44:53.809Z,1011.79
2022-10-05T09:45:53.863Z,1011.73
2022-10-05T09:46:53.780Z,1011.76
2022-10-05T09:47:53.783Z,1011.69
2022-10-05T09:48:53.776Z,1011.68
2022-10-05T09:49:53.840Z,1011.72
2022-10-05T09:50:53.735Z,1011.67
2022-10-05T09:51:53.701Z,1011.67
2022-10-05T09:52:53.708Z,1011.66
2022-10-05T09:53:53.695Z,1011.68
2022-10-05T09:54:53.672Z,1011.68
2022-10-05T09:55:53.787Z,1011.67
2022-10-05T09:56:53.656Z,1011.61
2022-10-05T09:57:53.637Z,1011.61
2022-10-05T09:58:53.637Z,1011.58
2022-10-05T09:59:53.641Z,1011.60
2022-10-05T10:01:03.602Z,1011.56
2022-10-05T10:01:54.737Z,1011.61
2022-10-05T10:02:53.722Z,1011.56
2022-10-05T10:03:53.546Z,1011.47
2022-10-05T10:04:53.545Z,1011.47
2022-10-05T10:05:53.540Z,1011.50
2022-10-05T10:06:53.517Z,1011.43
2022-10-05T10:07:53.540Z,1011.43
2022-10-05T10:08:53.499Z,1011.40
2022-10-05T10:09:53.465Z,1011.40
2022-10-05T10:10:53.472Z,1011.35
2022-10-05T10:11:53.440Z,1011.32
2022-10-05T10:12:53.430Z,1011.33
2022-10-05T10:13:53.547Z,1011.32
2022-10-05T10:14:53.411Z,1011.37
2022-10-05T10:15:53.478Z,1011.34
2022-10-05T10:16:53.394Z,1011.30
2022-10-05T10:17:53.363Z,1011.31
2022-10-05T10:18:53.342Z,1011.29
2022-10-05T10:19:53.473Z,1011.34
2022-10-05T10:20:53.343Z,1011.33
2022-10-05T10:21:53.305Z,1011.34
2022-10-05T10:22:53.315Z,1011.27
2022-10-05T10:23:53.273Z,1011.30
2022-10-05T10:24:53.273Z,1011.29
2022-10-05T10:25:53.398Z,1011.32
2022-10-05T10:27:00.282Z,1011.30
2022-10-05T10:27:53.231Z,1011.29
2022-10-05T10:28:53.238Z,1011.29
2022-10-05T10:29:53.212Z,1011.25
2022-10-05T10:30:53.250Z,1011.23
2022-10-05T10:31:53.265Z,1011.21
2022-10-05T10:32:53.186Z,1011.19
2022-10-05T10:33:53.172Z,1011.18
2022-10-05T10:34:53.159Z,1011.20
2022-10-05T10:35:53.136Z,1011.13
2022-10-05T10:36:53.127Z,1011.18
2022-10-05T10:37:53.226Z,1011.18
2022-10-05T10:38:53.119Z,1011.18
2022-10-05T10:39:53.093Z,1011.15
2022-10-05T10:40:53.078Z,1011.15
2022-10-05T10:41:53.055Z,1011.13
2022-10-05T10:42:53.043Z,1011.11
2022-10-05T10:43:53.200Z,1011.04
2022-10-05T10:44:53.046Z,1011.09
2022-10-05T10:45:53.021Z,1011.04
2022-10-05T10:46:53.396Z,1011.03
2022-10-05T10:47:52.988Z,1010.98
2022-10-05T10:48:52.974Z,1011.01
2022-10-05T10:49:52.976Z,1010.96
2022-10-05T10:50:52.939Z,1010.97
2022-10-05T10:51:52.933Z,1010.93
2022-10-05T10:52:52.909Z,1010.89
2022-10-05T10:53:52.903Z,1010.86
2022-10-05T10:54:52.911Z,1010.87
2022-10-05T10:55:53.230Z,1010.85
2022-10-05T10:56:52.865Z,1010.85
2022-10-05T10:57:52.844Z,1010.89
2022-10-05T10:58:52.840Z,1010.88
2022-10-05T10:59:52.836Z,1010.83
2022-10-05T11:00:52.801Z,1010.85
2022-10-05T11:01:53.308Z,1010.80
2022-10-05T11:02:52.831Z,1010.82
2022-10-05T11:03:52.753Z,1010.76
2022-10-05T11:04:52.778Z,1010.80
2022-10-05T11:05:52.747Z,1010.69
2022-10-05T11:06:52.738Z,1010.75
2022-10-05T11:07:52.745Z,1010.72
2022-10-05T11:08:52.709Z,1010.74
2022-10-05T11:09:52.676Z,1010.79
2022-10-05T11:10:52.666Z,1010.69
2022-10-05T11:11:52.662Z,1010.73
2022-10-05T11:12:52.639Z,1010.73
2022-10-05T11:13:52.752Z,1010.70
2022-10-05T11:14:53.412Z,1010.69
2022-10-05T11:15:52.769Z,1010.75
2022-10-05T11:16:52.601Z,1010.71
2022-10-05T11:17:52.579Z,1010.75
2022-10-05T11:18:52.558Z,1010.76
2022-10-05T11:20:03.527Z,1010.72
2022-10-05T11:20:53.554Z,1010.67
2022-10-05T11:21:52.510Z,1010.72
2022-10-05T11:22:52.501Z,1010.65
2022-10-05T11:23:52.495Z,1010.67
2022-10-05T11:24:52.480Z,1010.70
2022-10-05T11:25:52.514Z,1010.67
2022-10-05T11:26:52.467Z,1010.65
2022-10-05T11:27:52.434Z,1010.49
2022-10-05T11:28:52.438Z,1010.59
2022-10-05T11:29:52.410Z,1010.52
2022-10-05T11:30:52.425Z,1010.57
2022-10-05T11:31:52.877Z,1010.59
2022-10-05T11:32:52.378Z,1010.52
2022-10-05T11:33:52.371Z,1010.49
2022-10-05T11:34:52.370Z,1010.39
2022-10-05T11:35:52.329Z,1010.43
2022-10-05T11:36:52.316Z,1010.48
2022-10-05T11:37:52.431Z,1010.47
2022-10-05T11:38:52.300Z,1010.44
2022-10-05T11:39:52.268Z,1010.42
2022-10-05T11:40:52.272Z,1010.35
2022-10-05T11:41:52.247Z,1010.31
2022-10-05T11:42:52.241Z,1010.30
2022-10-05T11:43:52.353Z,1010.36
2022-10-05T11:44:52.208Z,1010.30
2022-10-05T11:45:52.203Z,1010.28
2022-10-05T11:46:52.246Z,1010.33
2022-10-05T11:47:52.172Z,1010.31
2022-10-05T11:48:52.174Z,1010.27
2022-10-05T11:49:52.251Z,1010.27
2022-10-05T11:50:52.131Z,1010.26
2022-10-05T11:51:52.262Z,1010.24
2022-10-05T11:52:52.115Z,1010.10
2022-10-05T11:53:52.106Z,1010.15
2022-10-05T11:55:09.837Z,1010.10
2022-10-05T11:55:53.184Z,1010.12
2022-10-05T11:56:54.559Z,1010.09
2022-10-05T11:57:52.037Z,1010.09
2022-10-05T11:58:52.025Z,1010.06
2022-10-05T11:59:52.019Z,1010.09
2022-10-05T12:00:51.996Z,1010.11
2022-10-05T12:01:52.019Z,1010.05
2022-10-05T12:02:52.046Z,1010.14
2022-10-05T12:03:52.023Z,1010.05
2022-10-05T12:04:51.961Z,1009.95
2022-10-05T12:05:51.928Z,1009.99
2022-10-05T12:06:52.221Z,1010.01
2022-10-05T12:07:51.950Z,1009.94
2022-10-05T12:08:51.902Z,1010.00
2022-10-05T12:09:51.869Z,1010.03
2022-10-05T12:10:51.861Z,1009.93
2022-10-05T12:11:56.883Z,1010.03
2022-10-05T12:12:52.891Z,1009.93
2022-10-05T12:13:51.833Z,1009.94
2022-10-05T12:14:51.825Z,1009.92
2022-10-05T12:15:51.809Z,1009.92
2022-10-05T12:16:51.797Z,1009.86
2022-10-05T12:17:51.763Z,1009.90
2022-10-05T12:18:51.863Z,1009.82
2022-10-05T12:19:51.758Z,1009.79
2022-10-05T12:20:51.734Z,1009.76
2022-10-05T12:21:51.727Z,1009.79
2022-10-05T12:22:51.719Z,1009.75
2022-10-05T12:23:51.686Z,1009.75
2022-10-05T12:24:51.795Z,1009.74
2022-10-05T12:25:51.690Z,1009.74
2022-10-05T12:26:52.350Z,1009.64
2022-10-05T12:27:51.637Z,1009.73
2022-10-05T12:28:51.631Z,1009.73
2022-10-05T12:29:51.606Z,1009.74
2022-10-05T12:30:51.619Z,1009.66
2022-10-05T12:31:51.591Z,1009.61
2022-10-05T12:32:51.568Z,1009.64
2022-10-05T12:33:51.562Z,1009.67
2022-10-05T12:34:51.557Z,1009.71
2022-10-05T12:35:51.521Z,1009.65
2022-10-05T12:37:06.485Z,1009.65
2022-10-05T12:37:52.500Z,1009.66
2022-10-05T12:38:51.482Z,1009.61
2022-10-05T12:39:51.508Z,1009.66
2022-10-05T12:40:51.477Z,1009.66
2022-10-05T12:41:51.445Z,1009.59
2022-10-05T12:42:51.553Z,1009.56
2022-10-05T12:43:51.435Z,1009.57
2022-10-05T12:44:51.404Z,1009.51
2022-10-05T12:45:51.447Z,1009.57
2022-10-05T12:46:51.397Z,1009.50
2022-10-05T12:47:53.760Z,1009.49
2022-10-05T12:48:51.400Z,1009.54
2022-10-05T12:49:51.335Z,1009.46
2022-10-05T12:50:51.338Z,1009.46
2022-10-05T12:51:51.321Z,1009.54
2022-10-05T12:52:51.299Z,1009.50
2022-10-05T12:53:51.300Z,1009.49
2022-10-05T12:54:51.312Z,1009.42
2022-10-05T12:55:51.257Z,1009.43
2022-10-05T12:56:51.239Z,1009.40
2022-10-05T12:57:51.251Z,1009.43
2022-10-05T12:58:51.234Z,1009.34
2022-10-05T12:59:51.208Z,1009.39
2022-10-05T13:00:51.275Z,1009.40
2022-10-05T13:01:51.221Z,1009.43
2022-10-05T13:02:51.162Z,1009.41
2022-10-05T13:03:51.167Z,1009.37
2022-10-05T13:04:51.132Z,1009.39
2022-10-05T13:05:51.146Z,1009.40
2022-10-05T13:06:51.234Z,1009.41
2022-10-05T13:07:51.102Z,1009.39
2022-10-05T13:08:51.125Z,1009.36
2022-10-05T13:09:51.082Z,1009.40
2022-10-05T13:10:51.055Z,1009.40
2022-10-05T13:11:51.271Z,1009.42
2022-10-05T13:12:51.080Z,1009.40
2022-10-05T13:13:51.023Z,1009.39
2022-10-05T13:14:50.997Z,1009.40
2022-10-05T13:15:51.060Z,1009.45
2022-10-05T13:16:54.815Z,1009.38
2022-10-05T13:17:50.982Z,1009.37
2022-10-05T13:18:50.991Z,1009.37
2022-10-05T13:19:50.947Z,1009.33
2022-10-05T13:20:50.962Z,1009.33
2022-10-05T13:21:50.920Z,1009.32
2022-10-05T13:22:50.902Z,1009.27
2022-10-05T13:23:55.092Z,1009.25
2022-10-05T13:24:51.979Z,1009.31
2022-10-05T13:25:50.877Z,1009.28
2022-10-05T13:26:50.854Z,1009.31
2022-10-05T13:28:07.119Z,1009.28
2022-10-05T13:28:50.822Z,1009.20
2022-10-05T13:51:02.815Z,1009.26
2022-10-05T13:54:40.058Z,1008.97
2022-10-05T13:54:44.764Z,1008.88
2022-10-05T13:58:54.530Z,1008.91
2022-10-05T13:58:59.236Z,1008.80
2022-10-05T13:59:59.236Z,1008.87
2022-10-05T14:15:32.299Z,1009.00
2022-10-05T14:16:47.564Z,1008.61
2022-10-05T14:16:52.392Z,1008.56
2022-10-05T14:19:10.851Z,1008.68
2022-10-05T14:19:15.555Z,1008.52
2022-10-05T15:46:22.575Z,1008.60
2022-10-05T15:46:31.185Z,1008.02
2022-10-05T15:47:27.752Z,1008.02
2022-10-05T15:48:27.285Z,1008.11
2022-10-05T15:49:27.274Z,1008.08
2022-10-05T15:50:27.250Z,1008.08
2022-10-05T15:51:27.493Z,1008.03
2022-10-05T15:52:27.225Z,1008.13
2022-10-05T15:53:27.222Z,1008.20
2022-10-05T15:54:27.216Z,1008.26
2022-10-05T15:55:27.177Z,1008.27
2022-10-05T15:56:27.162Z,1008.30
2022-10-05T15:57:27.398Z,1007.85
2022-10-05T15:58:27.157Z,1007.78
2022-10-05T15:59:27.795Z,1007.75
2022-10-05T16:00:27.119Z,1007.77
2022-10-05T16:01:27.158Z,1007.74
2022-10-05T16:02:27.149Z,1007.84
2022-10-05T16:03:27.216Z,1007.80
2022-10-05T16:04:29.295Z,1007.82
2022-10-05T16:05:27.504Z,1007.80
2022-10-05T16:06:27.064Z,1007.77
2022-10-05T16:07:28.683Z,1007.81
2022-10-05T16:08:27.032Z,1007.84
2022-10-05T16:09:27.037Z,1007.87
2022-10-05T16:10:27.974Z,1007.81
2022-10-05T16:11:34.397Z,1007.83
2022-10-05T16:12:26.952Z,1007.82
2022-10-05T16:13:27.246Z,1007.77
2022-10-05T16:14:26.923Z,1007.86
2022-10-05T16:15:27.041Z,1007.87
2022-10-05T16:16:26.966Z,1007.91
2022-10-05T16:17:26.925Z,1007.92
2022-10-05T16:18:26.909Z,1007.94
2022-10-05T16:19:26.897Z,1007.96
2022-10-05T16:20:26.889Z,1007.99
2022-10-05T16:21:26.894Z,1007.99
2022-10-05T16:22:26.845Z,1008.07
2022-10-05T16:23:26.825Z,1008.08
2022-10-05T16:24:26.802Z,1008.08
2022-10-05T16:25:26.831Z,1008.05
2022-10-05T16:26:26.768Z,1008.07
2022-10-05T16:27:26.885Z,1008.06
2022-10-05T16:28:27.289Z,1008.07
2022-10-05T16:29:26.720Z,1008.10
2022-10-05T16:30:26.733Z,1008.08
2022-10-05T16:31:26.721Z,1008.06
2022-10-05T16:32:30.581Z,1008.15
2022-10-05T16:33:26.711Z,1008.21
2022-10-05T16:34:26.676Z,1008.20
2022-10-05T16:35:26.651Z,1008.22
2022-10-05T16:36:26.655Z,1008.31
2022-10-05T16:37:26.635Z,1008.27
2022-10-05T16:38:26.643Z,1008.32
2022-10-05T16:39:26.713Z,1008.32
2022-10-05T16:40:26.598Z,1008.30
2022-10-05T16:41:26.573Z,1008.29
2022-10-05T16:42:26.567Z,1008.34
2022-10-05T16:43:26.577Z,1008.38
2022-10-05T16:44:26.532Z,1008.37
2022-10-05T16:45:26.549Z,1008.37
2022-10-05T16:46:27.933Z,1008.37
2022-10-05T16:47:27.675Z,1008.41
2022-10-05T16:48:26.939Z,1008.37
2022-10-05T16:49:26.461Z,1008.38
2022-10-05T16:50:26.461Z,1008.44
2022-10-05T16:51:26.561Z,1008.48
2022-10-05T16:52:26.427Z,1008.50
2022-10-05T16:53:26.405Z,1008.54
2022-10-05T16:54:26.412Z,1008.52
2022-10-05T16:55:26.395Z,1008.55
2022-10-05T16:56:26.375Z,1008.56
2022-10-05T16:57:26.493Z,1008.55
2022-10-05T16:58:26.408Z,1008.55
2022-10-05T16:59:26.327Z,1008.55
2022-10-05T17:00:27.121Z,1008.53
2022-10-05T17:01:26.383Z,1008.56
2022-10-05T17:02:26.338Z,1008.59
2022-10-05T17:03:26.325Z,1008.61
2022-10-05T17:04:26.262Z,1008.62
2022-10-05T17:05:26.265Z,1008.59
2022-10-05T17:06:26.233Z,1008.57
2022-10-05T17:07:26.231Z,1008.66
2022-10-05T17:08:26.838Z,1008.65
2022-10-05T17:09:26.215Z,1008.64
2022-10-05T17:10:26.200Z,1008.66
2022-10-05T17:11:26.180Z,1008.69
2022-10-05T17:12:26.154Z,1008.69
2022-10-05T17:13:26.150Z,1008.73
2022-10-05T17:14:26.133Z,1008.67
2022-10-05T17:15:26.271Z,1008.71
2022-10-05T17:16:26.120Z,1008.73
2022-10-05T17:17:26.088Z,1008.72
2022-10-05T17:18:26.443Z,1008.71
2022-10-05T17:19:26.072Z,1008.71
2022-10-05T17:20:26.047Z,1008.78
2022-10-05T17:21:26.070Z,1008.73
2022-10-05T17:22:26.020Z,1008.75
2022-10-05T17:23:26.007Z,1008.72
2022-10-05T17:24:26.014Z,1008.78
2022-10-05T17:25:25.994Z,1008.79
2022-10-05T17:26:25.975Z,1008.82
2022-10-05T17:27:26.067Z,1008.83
2022-10-05T17:28:26.250Z,1008.84
2022-10-05T17:29:25.934Z,1008.88
2022-10-05T17:30:25.935Z,1008.89
2022-10-05T17:31:26.008Z,1008.86
2022-10-05T17:32:25.892Z,1008.87
2022-10-05T17:33:25.937Z,1008.86
2022-10-05T17:34:25.863Z,1008.88
2022-10-05T17:35:25.853Z,1008.90
2022-10-05T17:36:25.860Z,1008.90
2022-10-05T17:37:25.887Z,1008.97
2022-10-05T17:38:26.015Z,1008.95
2022-10-05T17:39:25.938Z,1008.99
2022-10-05T17:40:28.510Z,1008.98
2022-10-05T17:41:27.229Z,1008.99
2022-10-05T17:42:25.789Z,1009.01
2022-10-05T17:43:25.750Z,1009.02
2022-10-05T17:44:25.747Z,1009.02
2022-10-05T17:45:25.862Z,1008.97
2022-10-05T17:46:25.743Z,1008.99
2022-10-05T17:47:25.688Z,1009.00
2022-10-05T17:48:26.210Z,1009.07
2022-10-05T17:49:25.664Z,1009.08
2022-10-05T17:50:25.662Z,1009.05
2022-10-05T17:51:25.684Z,1009.11
2022-10-05T17:52:25.629Z,1009.15
2022-10-05T17:53:25.624Z,1009.10
2022-10-05T17:54:25.599Z,1009.09
2022-10-05T17:55:25.587Z,1009.09
2022-10-05T17:56:25.594Z,1009.13
2022-10-05T17:57:25.685Z,1009.11
2022-10-05T17:58:25.795Z,1009.14
2022-10-05T17:59:25.543Z,1009.16
2022-10-05T18:00:25.535Z,1009.16
2022-10-05T18:01:25.520Z,1009.23
2022-10-05T18:02:25.523Z,1009.28
2022-10-05T18:03:25.508Z,1009.27
2022-10-05T18:04:25.465Z,1009.31
2022-10-05T18:05:25.458Z,1009.31
2022-10-05T18:06:25.446Z,1009.35
2022-10-05T18:07:25.435Z,1009.36
2022-10-05T18:08:30.278Z,1009.38
2022-10-05T18:09:26.418Z,1009.35
2022-10-05T18:10:25.430Z,1009.30
2022-10-05T18:11:25.381Z,1009.28
2022-10-05T18:12:25.361Z,1009.31
2022-10-05T18:13:25.796Z,1009.33
2022-10-05T18:14:25.342Z,1009.32
2022-10-05T18:15:25.432Z,1009.33
2022-10-05T18:16:25.322Z,1009.26
2022-10-05T18:17:28.394Z,1009.33
2022-10-05T18:18:25.519Z,1009.34
2022-10-05T18:19:25.275Z,1009.34
2022-10-05T18:20:25.258Z,1009.28
2022-10-05T18:21:25.372Z,1009.31
2022-10-05T18:22:25.223Z,1009.30
2022-10-05T18:23:25.202Z,1009.30
2022-10-05T18:24:25.218Z,1009.36
2022-10-05T18:25:25.191Z,1009.33
2022-10-05T18:26:25.198Z,1009.32
2022-10-05T18:27:29.897Z,1009.38
2022-10-05T18:28:26.340Z,1009.33
2022-10-05T18:29:25.124Z,1009.27
2022-10-05T18:30:25.147Z,1009.32
2022-10-05T18:31:25.147Z,1009.31
2022-10-05T18:32:25.094Z,1009.38
2022-10-05T18:33:25.230Z,1009.42
2022-10-05T18:34:25.087Z,1009.39
2022-10-05T18:35:25.051Z,1009.38
2022-10-05T18:36:25.050Z,1009.39
2022-10-05T18:37:25.026Z,1009.41
2022-10-05T18:38:25.346Z,1009.40
2022-10-05T18:39:25.041Z,1009.37
2022-10-05T18:40:24.994Z,1009.38
2022-10-05T18:41:24.981Z,1009.40
2022-10-05T18:42:24.961Z,1009.42
2022-10-05T18:43:24.951Z,1009.38
2022-10-05T18:44:24.952Z,1009.41
2022-10-05T18:45:25.065Z,1009.44
2022-10-05T18:46:24.944Z,1009.43
2022-10-05T18:47:24.891Z,1009.44
2022-10-05T18:48:25.206Z,1009.44
2022-10-05T18:49:25.895Z,1009.48
2022-10-05T18:50:24.885Z,1009.52
2022-10-05T18:51:24.983Z,1009.60
2022-10-05T18:52:24.822Z,1009.64
2022-10-05T18:53:24.826Z,1009.65
2022-10-05T18:54:24.814Z,1009.67
2022-10-05T18:55:24.852Z,1009.68
2022-10-05T18:56:24.788Z,1009.66
2022-10-05T18:57:24.944Z,1009.70
2022-10-05T18:58:25.049Z,1009.70
2022-10-05T18:59:25.270Z,1009.73
2022-10-05T19:00:24.832Z,1009.71
2022-10-05T19:01:24.817Z,1009.72
2022-10-05T19:02:24.791Z,1009.76
2022-10-05T19:03:24.821Z,1009.71
2022-10-05T19:04:24.671Z,1009.78
2022-10-05T19:05:46.394Z,1009.82
2022-10-05T19:06:25.647Z,1009.83
2022-10-05T19:07:24.620Z,1009.89
2022-10-05T19:08:24.997Z,1009.91
2022-10-05T19:09:24.633Z,1009.91
2022-10-05T19:10:24.645Z,1009.98
2022-10-05T19:11:24.573Z,1009.92
2022-10-05T19:12:24.555Z,1009.94
2022-10-05T19:13:24.747Z,1010.02
2022-10-05T19:14:24.531Z,1010.11
2022-10-05T19:15:24.542Z,1010.03
2022-10-05T19:16:24.544Z,1010.13
2022-10-05T19:17:24.490Z,1010.12
2022-10-05T19:18:25.003Z,1010.17
2022-10-05T19:19:30.683Z,1010.26
2022-10-05T19:20:25.483Z,1010.20
2022-10-05T19:21:24.557Z,1010.37
2022-10-05T19:22:24.417Z,1010.36
2022-10-05T19:23:24.722Z,1010.36
2022-10-05T19:24:24.412Z,1010.38
2022-10-05T19:25:24.382Z,1010.48
2022-10-05T19:26:24.508Z,1010.45
2022-10-05T19:27:24.370Z,1010.60
2022-10-05T19:28:24.650Z,1010.63
2022-10-05T19:29:24.338Z,1010.55
2022-10-05T19:30:24.306Z,1010.61
2022-10-05T19:31:24.362Z,1010.49
2022-10-05T19:32:24.321Z,1010.54
2022-10-05T19:33:24.290Z,1010.59
2022-10-05T19:34:24.258Z,1010.60
2022-10-05T19:35:24.238Z,1010.50
2022-10-05T19:36:24.243Z,1010.58
2022-10-05T19:37:24.218Z,1010.58
2022-10-05T19:38:24.334Z,1010.62
2022-10-05T19:39:24.204Z,1010.61
2022-10-05T19:40:24.180Z,1010.64
2022-10-05T19:41:24.174Z,1010.60
2022-10-05T19:42:24.222Z,1010.56
2022-10-05T19:43:24.227Z,1010.65
2022-10-05T19:44:24.255Z,1010.58
2022-10-05T19:45:24.114Z,1010.55
2022-10-05T19:46:24.143Z,1010.71
2022-10-05T19:47:24.136Z,1010.65
2022-10-05T19:48:24.064Z,1010.57
2022-10-05T19:49:24.062Z,1010.49
2022-10-05T19:50:24.156Z,1010.55
2022-10-05T19:51:24.047Z,1010.53
2022-10-05T19:52:24.020Z,1010.57
2022-10-05T19:53:24.009Z,1010.57
2022-10-05T19:54:23.976Z,1010.54
2022-10-05T19:55:23.984Z,1010.58
2022-10-05T19:56:24.001Z,1010.61
2022-10-05T19:57:23.949Z,1010.65
2022-10-05T19:58:23.948Z,1010.66
2022-10-05T19:59:23.930Z,1010.76
2022-10-05T20:00:23.904Z,1010.66
2022-10-05T20:01:23.954Z,1010.56
2022-10-05T20:02:23.953Z,1010.58
2022-10-05T20:03:23.869Z,1010.64
2022-10-05T20:04:23.854Z,1010.63
2022-10-05T20:05:23.852Z,1010.57
2022-10-05T20:06:23.820Z,1010.56
2022-10-05T20:07:23.810Z,1010.55
2022-10-05T20:08:24.164Z,1010.54
2022-10-05T20:09:23.787Z,1010.54
2022-10-05T20:10:23.797Z,1010.52
2022-10-05T20:11:23.776Z,1010.52
2022-10-05T20:12:23.741Z,1010.61
2022-10-05T20:13:23.756Z,1010.50
2022-10-05T20:14:23.853Z,1010.55
2022-10-05T20:15:23.714Z,1010.60
2022-10-05T20:16:23.787Z,1010.77
2022-10-05T20:17:23.686Z,1010.64
2022-10-05T20:18:23.668Z,1010.66
2022-10-05T20:19:23.669Z,1010.67
2022-10-05T20:20:23.745Z,1010.74
2022-10-05T20:21:23.629Z,1010.78
2022-10-05T20:22:23.596Z,1010.70
2022-10-05T20:23:23.607Z,1010.68
2022-10-05T20:24:23.589Z,1010.69
2022-10-05T20:25:23.569Z,1010.66
2022-10-05T20:26:23.689Z,1010.70
2022-10-05T20:27:23.550Z,1010.63
2022-10-05T20:28:23.535Z,1010.74
2022-10-05T20:29:23.521Z,1010.64
2022-10-05T20:30:23.498Z,1010.76
2022-10-05T20:31:23.506Z,1010.69
2022-10-05T20:32:26.425Z,1010.67
2022-10-05T20:33:24.460Z,1010.67
2022-10-05T20:34:23.453Z,1010.68
2022-10-05T20:35:23.444Z,1010.70
2022-10-05T20:36:23.413Z,1010.71
2022-10-05T20:37:23.414Z,1010.71
2022-10-05T20:38:23.436Z,1010.80
2022-10-05T20:39:23.385Z,1010.73
2022-10-05T20:40:23.352Z,1010.75
2022-10-05T20:41:23.357Z,1010.62
2022-10-05T20:42:23.330Z,1010.68
2022-10-05T20:43:23.313Z,1010.66
2022-10-05T20:44:23.345Z,1010.66
2022-10-05T20:45:23.293Z,1010.72
2022-10-05T20:46:23.324Z,1010.69
2022-10-05T20:47:23.277Z,1010.65
2022-10-05T20:48:23.245Z,1010.66
2022-10-05T20:49:23.257Z,1010.71
2022-10-05T20:50:24.086Z,1010.66
2022-10-05T20:51:23.226Z,1010.73
2022-10-05T20:52:23.237Z,1010.76
2022-10-05T20:53:23.198Z,1010.70
2022-10-05T20:54:23.168Z,1010.72
2022-10-05T20:55:23.172Z,1010.79
2022-10-05T20:56:23.183Z,1010.75
2022-10-05T20:57:23.138Z,1010.77
2022-10-05T20:58:23.123Z,1010.81
2022-10-05T20:59:23.120Z,1010.80
2022-10-05T21:00:23.090Z,1010.81
2022-10-05T21:01:23.139Z,1010.78
2022-10-05T21:02:23.169Z,1010.82
2022-10-05T21:03:23.041Z,1010.83
2022-10-05T21:04:23.115Z,1010.80
2022-10-05T21:05:23.075Z,1010.87
2022-10-05T21:06:23.015Z,1010.93
2022-10-05T21:07:23.006Z,1010.90
2022-10-05T21:08:23.082Z,1010.91
2022-10-05T21:09:22.963Z,1010.85
2022-10-05T21:10:22.965Z,1010.93
2022-10-05T21:11:22.956Z,1010.92
2022-10-05T21:12:22.923Z,1010.93
2022-10-05T21:13:22.929Z,1010.98
2022-10-05T21:14:23.015Z,1010.97
2022-10-05T21:15:22.884Z,1010.98
2022-10-05T21:16:23.018Z,1010.98
2022-10-05T21:17:22.860Z,1010.95
2022-10-05T21:18:22.851Z,1011.02
2022-10-05T21:19:22.849Z,1011.04
2022-10-05T21:20:22.928Z,1011.01
2022-10-05T21:21:22.819Z,1011.06
2022-10-05T21:22:22.790Z,1011.08
2022-10-05T21:23:22.778Z,1011.11
2022-10-05T21:24:22.773Z,1011.05
2022-10-05T21:25:22.756Z,1011.07
2022-10-05T21:26:22.864Z,1011.10
2022-10-05T21:27:22.754Z,1011.14
2022-10-05T21:28:22.756Z,1011.09
2022-10-05T21:29:22.734Z,1011.16
2022-10-05T21:30:22.680Z,1011.16
2022-10-05T21:31:22.714Z,1011.06
2022-10-05T21:32:22.785Z,1011.15
2022-10-05T21:33:22.641Z,1011.12
2022-10-05T21:34:22.637Z,1011.08
2022-10-05T21:35:22.630Z,1011.12
2022-10-05T21:36:24.691Z,1011.17
2022-10-05T21:37:22.599Z,1011.21
2022-10-05T21:38:22.694Z,1011.21
2022-10-05T21:39:22.563Z,1011.23
2022-10-05T21:40:22.557Z,1011.23
2022-10-05T21:41:22.557Z,1011.20
2022-10-05T21:42:23.575Z,1011.25
2022-10-05T21:43:22.504Z,1011.23
2022-10-05T21:44:22.646Z,1011.26
2022-10-05T21:45:22.487Z,1011.30
2022-10-05T21:46:22.481Z,1011.18
2022-10-05T21:47:22.471Z,1011.27
2022-10-05T21:48:22.437Z,1011.25
2022-10-05T21:49:22.441Z,1011.24
2022-10-05T21:50:22.445Z,1011.28
2022-10-05T21:51:22.401Z,1011.37
2022-10-05T21:52:22.401Z,1011.32
2022-10-05T21:53:22.378Z,1011.34
2022-10-05T21:54:22.389Z,1011.42
2022-10-05T21:55:22.362Z,1011.41
2022-10-05T21:56:22.451Z,1011.43
2022-10-05T21:57:22.324Z,1011.38
2022-10-05T21:58:22.322Z,1011.41
2022-10-05T21:59:22.316Z,1011.36
2022-10-05T22:00:22.294Z,1011.41
2022-10-05T22:01:23.105Z,1011.36
2022-10-05T22:02:22.282Z,1011.29
2022-10-05T22:03:22.291Z,1011.33
2022-10-05T22:04:22.244Z,1011.28
2022-10-05T22:05:22.225Z,1011.34
2022-10-05T22:06:22.216Z,1011.27
2022-10-05T22:07:22.207Z,1011.36
2022-10-05T22:08:22.281Z,1011.35
2022-10-05T22:09:22.179Z,1011.39
2022-10-05T22:10:22.155Z,1011.34
2022-10-05T22:11:22.135Z,1011.37
2022-10-05T22:12:22.137Z,1011.33
2022-10-05T22:13:22.128Z,1011.40
2022-10-05T22:14:22.127Z,1011.44
2022-10-05T22:15:22.085Z,1011.41
2022-10-05T22:16:22.156Z,1011.40
2022-10-05T22:17:22.057Z,1011.46
2022-10-05T22:18:22.050Z,1011.51
2022-10-05T22:19:22.041Z,1011.50
2022-10-05T22:20:22.049Z,1011.48
2022-10-05T22:21:22.025Z,1011.48
2022-10-05T22:22:21.981Z,1011.54
2022-10-05T22:23:21.982Z,1011.56
2022-10-05T22:24:21.972Z,1011.60
2022-10-05T22:25:21.948Z,1011.60
2022-10-05T22:26:22.056Z,1011.60
2022-10-05T22:27:21.935Z,1011.59
2022-10-05T22:28:21.961Z,1011.59
2022-10-05T22:29:21.907Z,1011.59